sensor_id;sensor_type;location;lat;lon;timestamp;pressure;altitude;pressure_sealevel;temperature;humidity
59009;BME280;44794;42.652;23.318;2023-05-24T00:00:28;94258.88;;;11.30;100.00
59009;BME280;44794;42.652;23.318;2023-05-24T00:02:53;94254.75;;;11.28;100.00
59009;BME280;44794;42.652;23.318;2023-05-24T00:05:19;94249.94;;;11.23;100.00
59009;BME280;44794;42.652;23.318;2023-05-24T00:07:44;94253.25;;;11.25;100.00
59009;BME280;44794;42.652;23.318;2023-05-24T00:10:10;94259.66;;;11.22;100.00
59009;BME280;44794;42.652;23.318;2023-05-24T00:12:36;94261.03;;;11.25;100.00
59009;BME280;44794;42.652;23.318;2023-05-24T00:15:01;94255.97;;;11.24;100.00
59009;BME280;44794;42.652;23.318;2023-05-24T00:17:27;94257.88;;;11.22;100.00
59009;BME280;44794;42.652;23.318;2023-05-24T00:19:54;94250.06;;;11.22;100.00
59009;BME280;44794;42.652;23.318;2023-05-24T00:22:20;94252.09;;;11.19;100.00
59009;BME280;44794;42.652;23.318;2023-05-24T00:24:48;94246.19;;;11.17;100.00
59009;BME280;44794;42.652;23.318;2023-05-24T00:27:14;94250.94;;;11.12;100.00
59009;BME280;44794;42.652;23.318;2023-05-24T00:29:39;94248.56;;;11.09;100.00
59009;BME280;44794;42.652;23.318;2023-05-24T00:32:05;94246.47;;;11.03;100.00
59009;BME280;44794;42.652;23.318;2023-05-24T00:34:31;94244.00;;;11.01;100.00
59009;BME280;44794;42.652;23.318;2023-05-24T00:36:56;94244.81;;;11.02;100.00
59009;BME280;44794;42.652;23.318;2023-05-24T00:39:22;94237.22;;;10.89;100.00
59009;BME280;44794;42.652;23.318;2023-05-24T00:41:49;94241.47;;;10.90;100.00
59009;BME280;44794;42.652;23.318;2023-05-24T00:44:14;94234.28;;;10.83;100.00
59009;BME280;44794;42.652;23.318;2023-05-24T00:46:40;94242.69;;;10.75;100.00
59009;BME280;44794;42.652;23.318;2023-05-24T00:49:06;94228.19;;;10.73;100.00
59009;BME280;44794;42.652;23.318;2023-05-24T00:51:33;94231.81;;;10.70;100.00
59009;BME280;44794;42.652;23.318;2023-05-24T00:53:59;94231.97;;;10.69;100.00
59009;BME280;44794;42.652;23.318;2023-05-24T00:56:25;94227.84;;;10.66;100.00
59009;BME280;44794;42.652;23.318;2023-05-24T00:58:51;94231.63;;;10.62;100.00
59009;BME280;44794;42.652;23.318;2023-05-24T01:01:20;94227.63;;;10.58;100.00
59009;BME280;44794;42.652;23.318;2023-05-24T01:03:51;94228.94;;;10.53;100.00
59009;BME280;44794;42.652;23.318;2023-05-24T01:06:18;94228.25;;;10.51;100.00
59009;BME280;44794;42.652;23.318;2023-05-24T01:13:59;94224.00;;;10.50;100.00
59009;BME280;44794;42.652;23.318;2023-05-24T01:16:35;94225.16;;;10.46;100.00
59009;BME280;44794;42.652;23.318;2023-05-24T01:20:01;94229.69;;;10.44;100.00
59009;BME280;44794;42.652;23.318;2023-05-24T01:27:36;94227.31;;;10.41;100.00
59009;BME280;44794;42.652;23.318;2023-05-24T01:30:03;94229.31;;;10.48;100.00
59009;BME280;44794;42.652;23.318;2023-05-24T01:32:29;94229.31;;;10.48;100.00
59009;BME280;44794;42.652;23.318;2023-05-24T01:34:55;94226.69;;;10.59;100.00
59009;BME280;44794;42.652;23.318;2023-05-24T01:37:20;94232.69;;;10.60;100.00
59009;BME280;44794;42.652;23.318;2023-05-24T01:39:46;94229.41;;;10.58;100.00
59009;BME280;44794;42.652;23.318;2023-05-24T01:45:13;94236.13;;;10.49;100.00
59009;BME280;44794;42.652;23.318;2023-05-24T01:48:03;94242.66;;;10.44;100.00
59009;BME280;44794;42.652;23.318;2023-05-24T01:50:40;94234.63;;;10.36;100.00
59009;BME280;44794;42.652;23.318;2023-05-24T01:53:12;94236.78;;;10.31;100.00
59009;BME280;44794;42.652;23.318;2023-05-24T01:55:38;94234.53;;;10.27;100.00
59009;BME280;44794;42.652;23.318;2023-05-24T01:58:05;94227.91;;;10.23;100.00
59009;BME280;44794;42.652;23.318;2023-05-24T02:00:33;94230.88;;;10.18;100.00
59009;BME280;44794;42.652;23.318;2023-05-24T02:03:00;94219.09;;;10.14;100.00
59009;BME280;44794;42.652;23.318;2023-05-24T02:05:27;94219.31;;;10.11;100.00
59009;BME280;44794;42.652;23.318;2023-05-24T02:07:52;94212.72;;;10.07;100.00
59009;BME280;44794;42.652;23.318;2023-05-24T02:10:18;94207.28;;;10.10;100.00
59009;BME280;44794;42.652;23.318;2023-05-24T02:12:43;94208.34;;;10.08;100.00
59009;BME280;44794;42.652;23.318;2023-05-24T02:15:09;94200.22;;;10.12;100.00
59009;BME280;44794;42.652;23.318;2023-05-24T02:17:38;94200.22;;;10.12;100.00
59009;BME280;44794;42.652;23.318;2023-05-24T02:20:05;94203.06;;;10.09;100.00
59009;BME280;44794;42.652;23.318;2023-05-24T02:22:31;94203.78;;;10.00;100.00
59009;BME280;44794;42.652;23.318;2023-05-24T02:24:56;94204.91;;;9.96;100.00
59009;BME280;44794;42.652;23.318;2023-05-24T02:27:22;94202.09;;;9.88;100.00
59009;BME280;44794;42.652;23.318;2023-05-24T02:29:47;94202.34;;;9.85;100.00
59009;BME280;44794;42.652;23.318;2023-05-24T02:32:13;94198.34;;;9.81;100.00
59009;BME280;44794;42.652;23.318;2023-05-24T02:34:38;94193.50;;;9.77;100.00
59009;BME280;44794;42.652;23.318;2023-05-24T02:37:04;94193.00;;;9.72;100.00
59009;BME280;44794;42.652;23.318;2023-05-24T02:39:30;94202.44;;;9.73;100.00
59009;BME280;44794;42.652;23.318;2023-05-24T02:41:55;94194.66;;;9.73;100.00
59009;BME280;44794;42.652;23.318;2023-05-24T02:44:21;94196.19;;;9.75;100.00
59009;BME280;44794;42.652;23.318;2023-05-24T02:46:46;94196.06;;;9.66;100.00
59009;BME280;44794;42.652;23.318;2023-05-24T02:49:12;94197.47;;;9.59;100.00
59009;BME280;44794;42.652;23.318;2023-05-24T02:51:37;94194.91;;;9.59;100.00
59009;BME280;44794;42.652;23.318;2023-05-24T02:54:03;94197.59;;;9.58;100.00
59009;BME280;44794;42.652;23.318;2023-05-24T02:56:28;94195.72;;;9.60;100.00
59009;BME280;44794;42.652;23.318;2023-05-24T02:58:55;94207.16;;;9.57;100.00
59009;BME280;44794;42.652;23.318;2023-05-24T03:01:20;94209.63;;;9.59;100.00
59009;BME280;44794;42.652;23.318;2023-05-24T03:03:46;94204.44;;;9.59;100.00
59009;BME280;44794;42.652;23.318;2023-05-24T03:06:12;94208.44;;;9.63;100.00
59009;BME280;44794;42.652;23.318;2023-05-24T03:08:39;94203.38;;;9.72;100.00
59009;BME280;44794;42.652;23.318;2023-05-24T03:11:05;94206.59;;;9.86;100.00
59009;BME280;44794;42.652;23.318;2023-05-24T03:13:31;94198.69;;;10.10;100.00
59009;BME280;44794;42.652;23.318;2023-05-24T03:15:56;94200.31;;;10.33;100.00
59009;BME280;44794;42.652;23.318;2023-05-24T03:18:22;94199.41;;;10.65;100.00
59009;BME280;44794;42.652;23.318;2023-05-24T03:20:47;94213.94;;;10.88;100.00
59009;BME280;44794;42.652;23.318;2023-05-24T03:23:13;94219.13;;;10.99;100.00
59009;BME280;44794;42.652;23.318;2023-05-24T03:25:39;94233.69;;;11.11;100.00
59009;BME280;44794;42.652;23.318;2023-05-24T03:28:05;94246.38;;;11.24;100.00
59009;BME280;44794;42.652;23.318;2023-05-24T03:30:31;94269.75;;;11.35;100.00
59009;BME280;44794;42.652;23.318;2023-05-24T03:32:57;94278.69;;;11.42;100.00
59009;BME280;44794;42.652;23.318;2023-05-24T03:35:23;94286.59;;;11.52;100.00
59009;BME280;44794;42.652;23.318;2023-05-24T03:37:48;94294.19;;;11.64;100.00
59009;BME280;44794;42.652;23.318;2023-05-24T03:40:14;94301.38;;;11.72;100.00
59009;BME280;44794;42.652;23.318;2023-05-24T03:42:39;94294.72;;;11.79;100.00
59009;BME280;44794;42.652;23.318;2023-05-24T03:45:05;94304.84;;;11.82;100.00
59009;BME280;44794;42.652;23.318;2023-05-24T03:47:31;94311.66;;;11.94;100.00
59009;BME280;44794;42.652;23.318;2023-05-24T03:49:56;94311.56;;;12.04;100.00
59009;BME280;44794;42.652;23.318;2023-05-24T03:52:22;94307.81;;;12.18;100.00
59009;BME280;44794;42.652;23.318;2023-05-24T03:54:48;94312.38;;;12.25;100.00
59009;BME280;44794;42.652;23.318;2023-05-24T03:57:13;94322.44;;;12.39;100.00
59009;BME280;44794;42.652;23.318;2023-05-24T03:59:39;94322.09;;;12.53;100.00
59009;BME280;44794;42.652;23.318;2023-05-24T04:02:05;94322.81;;;12.65;100.00
59009;BME280;44794;42.652;23.318;2023-05-24T04:04:30;94326.16;;;12.76;100.00
59009;BME280;44794;42.652;23.318;2023-05-24T04:06:56;94329.38;;;12.89;100.00
59009;BME280;44794;42.652;23.318;2023-05-24T04:09:22;94334.78;;;13.06;100.00
59009;BME280;44794;42.652;23.318;2023-05-24T04:11:48;94343.47;;;13.26;100.00
59009;BME280;44794;42.652;23.318;2023-05-24T04:14:14;94344.28;;;13.36;100.00
59009;BME280;44794;42.652;23.318;2023-05-24T04:16:39;94347.03;;;13.44;100.00
59009;BME280;44794;42.652;23.318;2023-05-24T04:19:06;94351.84;;;13.48;100.00
59009;BME280;44794;42.652;23.318;2023-05-24T04:21:31;94347.88;;;13.53;100.00
59009;BME280;44794;42.652;23.318;2023-05-24T04:23:57;94348.28;;;13.58;100.00
59009;BME280;44794;42.652;23.318;2023-05-24T04:26:26;94347.75;;;13.74;100.00
59009;BME280;44794;42.652;23.318;2023-05-24T04:28:52;94358.47;;;13.90;100.00
59009;BME280;44794;42.652;23.318;2023-05-24T04:31:17;94359.84;;;14.03;100.00
59009;BME280;44794;42.652;23.318;2023-05-24T04:33:44;94353.53;;;14.15;100.00
59009;BME280;44794;42.652;23.318;2023-05-24T04:36:09;94356.25;;;14.23;99.47
59009;BME280;44794;42.652;23.318;2023-05-24T04:38:36;94352.94;;;14.30;98.90
59009;BME280;44794;42.652;23.318;2023-05-24T04:41:03;94360.88;;;14.48;98.82
59009;BME280;44794;42.652;23.318;2023-05-24T04:43:28;94371.72;;;14.53;97.03
59009;BME280;44794;42.652;23.318;2023-05-24T04:45:54;94373.25;;;14.55;96.36
59009;BME280;44794;42.652;23.318;2023-05-24T04:48:20;94386.13;;;14.66;95.23
59009;BME280;44794;42.652;23.318;2023-05-24T04:50:52;94384.97;;;14.78;94.95
59009;BME280;44794;42.652;23.318;2023-05-24T04:53:19;94389.03;;;15.00;94.18
59009;BME280;44794;42.652;23.318;2023-05-24T04:55:44;94383.31;;;15.23;92.93
59009;BME280;44794;42.652;23.318;2023-05-24T04:58:10;94396.88;;;15.36;90.14
59009;BME280;44794;42.652;23.318;2023-05-24T05:00:35;94407.34;;;16.15;87.84
59009;BME280;44794;42.652;23.318;2023-05-24T05:03:01;94423.47;;;18.45;77.52
59009;BME280;44794;42.652;23.318;2023-05-24T05:05:26;94435.88;;;21.70;55.69
59009;BME280;44794;42.652;23.318;2023-05-24T05:07:52;94452.06;;;24.17;46.15
59009;BME280;44794;42.652;23.318;2023-05-24T05:10:17;94459.00;;;26.63;40.70
59009;BME280;44794;42.652;23.318;2023-05-24T05:12:43;94447.44;;;28.28;36.26
59009;BME280;44794;42.652;23.318;2023-05-24T05:15:09;94447.31;;;28.71;34.81
59009;BME280;44794;42.652;23.318;2023-05-24T05:17:34;94449.25;;;29.86;33.80
59009;BME280;44794;42.652;23.318;2023-05-24T05:20:00;94451.25;;;30.25;32.57
59009;BME280;44794;42.652;23.318;2023-05-24T05:22:26;94447.09;;;30.68;31.17
59009;BME280;44794;42.652;23.318;2023-05-24T05:24:51;94443.38;;;30.57;31.15
59009;BME280;44794;42.652;23.318;2023-05-24T05:27:17;94461.31;;;31.35;29.16
59009;BME280;44794;42.652;23.318;2023-05-24T05:29:42;94455.03;;;31.30;29.43
59009;BME280;44794;42.652;23.318;2023-05-24T05:32:08;94457.47;;;31.04;29.51
59009;BME280;44794;42.652;23.318;2023-05-24T05:34:34;94447.88;;;32.01;28.82
59009;BME280;44794;42.652;23.318;2023-05-24T05:36:59;94453.69;;;32.47;28.18
59009;BME280;44794;42.652;23.318;2023-05-24T05:39:24;94459.41;;;31.20;29.04
59009;BME280;44794;42.652;23.318;2023-05-24T05:41:50;94457.28;;;30.94;29.22
59009;BME280;44794;42.652;23.318;2023-05-24T05:44:16;94452.44;;;30.68;29.35
59009;BME280;44794;42.652;23.318;2023-05-24T05:46:42;94446.63;;;30.71;29.70
59009;BME280;44794;42.652;23.318;2023-05-24T05:49:10;94450.13;;;31.43;28.56
59009;BME280;44794;42.652;23.318;2023-05-24T05:51:36;94444.31;;;30.63;29.62
59009;BME280;44794;42.652;23.318;2023-05-24T05:54:03;94453.03;;;31.86;28.41
59009;BME280;44794;42.652;23.318;2023-05-24T05:56:29;94451.50;;;30.74;30.00
59009;BME280;44794;42.652;23.318;2023-05-24T05:58:54;94450.94;;;31.11;29.22
59009;BME280;44794;42.652;23.318;2023-05-24T06:01:20;94454.72;;;30.48;29.80
59009;BME280;44794;42.652;23.318;2023-05-24T06:03:45;94459.84;;;32.85;26.92
59009;BME280;44794;42.652;23.318;2023-05-24T06:06:11;94463.53;;;34.47;25.52
59009;BME280;44794;42.652;23.318;2023-05-24T06:08:37;94458.47;;;31.58;27.65
59009;BME280;44794;42.652;23.318;2023-05-24T06:11:05;94460.78;;;30.32;29.98
59009;BME280;44794;42.652;23.318;2023-05-24T06:13:30;94459.81;;;32.05;27.80
59009;BME280;44794;42.652;23.318;2023-05-24T06:15:57;94461.16;;;32.83;26.25
59009;BME280;44794;42.652;23.318;2023-05-24T06:18:23;94461.53;;;32.91;26.18
59009;BME280;44794;42.652;23.318;2023-05-24T06:20:49;94454.38;;;32.38;27.38
59009;BME280;44794;42.652;23.318;2023-05-24T06:23:15;94465.84;;;34.75;24.69
59009;BME280;44794;42.652;23.318;2023-05-24T06:25:40;94475.91;;;35.81;23.29
59009;BME280;44794;42.652;23.318;2023-05-24T06:28:08;94464.53;;;35.79;23.36
59009;BME280;44794;42.652;23.318;2023-05-24T06:30:33;94468.75;;;34.59;25.10
59009;BME280;44794;42.652;23.318;2023-05-24T06:32:59;94459.94;;;36.29;22.91
59009;BME280;44794;42.652;23.318;2023-05-24T06:35:25;94459.69;;;36.20;22.09
59009;BME280;44794;42.652;23.318;2023-05-24T06:37:50;94464.75;;;36.67;22.21
59009;BME280;44794;42.652;23.318;2023-05-24T06:40:16;94465.47;;;37.55;20.93
59009;BME280;44794;42.652;23.318;2023-05-24T06:42:41;94457.94;;;37.90;19.95
59009;BME280;44794;42.652;23.318;2023-05-24T06:45:07;94457.47;;;36.52;21.48
59009;BME280;44794;42.652;23.318;2023-05-24T06:47:33;94450.69;;;35.40;22.41
59009;BME280;44794;42.652;23.318;2023-05-24T06:49:59;94453.91;;;35.27;22.02
59009;BME280;44794;42.652;23.318;2023-05-24T06:52:25;94451.28;;;34.76;23.05
59009;BME280;44794;42.652;23.318;2023-05-24T06:54:51;94451.47;;;35.36;21.88
59009;BME280;44794;42.652;23.318;2023-05-24T06:57:16;94452.38;;;36.31;21.46
59009;BME280;44794;42.652;23.318;2023-05-24T06:59:42;94443.97;;;36.17;21.52
59009;BME280;44794;42.652;23.318;2023-05-24T07:02:07;94451.00;;;35.54;23.05
59009;BME280;44794;42.652;23.318;2023-05-24T07:04:33;94448.53;;;36.57;22.16
59009;BME280;44794;42.652;23.318;2023-05-24T07:06:59;94445.88;;;36.22;22.23
59009;BME280;44794;42.652;23.318;2023-05-24T07:09:24;94432.59;;;34.65;23.43
59009;BME280;44794;42.652;23.318;2023-05-24T07:11:50;94437.81;;;34.35;24.12
59009;BME280;44794;42.652;23.318;2023-05-24T07:14:16;94440.06;;;34.07;24.77
59009;BME280;44794;42.652;23.318;2023-05-24T07:16:41;94437.28;;;33.39;25.74
59009;BME280;44794;42.652;23.318;2023-05-24T07:19:07;94438.03;;;33.56;25.60
59009;BME280;44794;42.652;23.318;2023-05-24T07:21:32;94444.28;;;34.85;24.31
59009;BME280;44794;42.652;23.318;2023-05-24T07:23:58;94442.56;;;33.87;25.28
59009;BME280;44794;42.652;23.318;2023-05-24T07:26:23;94435.34;;;33.35;25.76
59009;BME280;44794;42.652;23.318;2023-05-24T07:28:49;94438.03;;;34.29;25.34
59009;BME280;44794;42.652;23.318;2023-05-24T07:31:14;94444.72;;;35.28;24.60
59009;BME280;44794;42.652;23.318;2023-05-24T07:33:40;94442.22;;;35.07;24.41
59009;BME280;44794;42.652;23.318;2023-05-24T07:36:06;94450.97;;;36.38;22.44
59009;BME280;44794;42.652;23.318;2023-05-24T07:38:33;94454.16;;;35.21;23.27
59009;BME280;44794;42.652;23.318;2023-05-24T07:40:59;94453.16;;;35.52;22.98
59009;BME280;44794;42.652;23.318;2023-05-24T07:43:25;94447.97;;;33.29;24.95
59009;BME280;44794;42.652;23.318;2023-05-24T07:45:52;94444.19;;;32.83;25.76
59009;BME280;44794;42.652;23.318;2023-05-24T07:48:21;94443.41;;;33.30;24.91
59009;BME280;44794;42.652;23.318;2023-05-24T07:50:50;94446.84;;;33.78;24.98
59009;BME280;44794;42.652;23.318;2023-05-24T07:53:16;94440.91;;;35.29;23.34
59009;BME280;44794;42.652;23.318;2023-05-24T07:55:42;94446.97;;;34.85;23.93
59009;BME280;44794;42.652;23.318;2023-05-24T07:58:09;94434.75;;;32.80;25.36
59009;BME280;44794;42.652;23.318;2023-05-24T08:00:34;94441.72;;;32.76;25.31
59009;BME280;44794;42.652;23.318;2023-05-24T08:03:00;94445.63;;;33.11;25.06
59009;BME280;44794;42.652;23.318;2023-05-24T08:05:25;94432.56;;;32.77;25.63
59009;BME280;44794;42.652;23.318;2023-05-24T08:07:51;94434.34;;;32.29;26.19
59009;BME280;44794;42.652;23.318;2023-05-24T08:10:17;94441.59;;;30.12;28.27
59009;BME280;44794;42.652;23.318;2023-05-24T08:12:43;94434.38;;;28.20;30.34
59009;BME280;44794;42.652;23.318;2023-05-24T08:15:09;94431.91;;;27.83;32.78
59009;BME280;44794;42.652;23.318;2023-05-24T08:17:35;94414.41;;;26.83;33.39
59009;BME280;44794;42.652;23.318;2023-05-24T08:20:01;94422.91;;;26.24;33.71
59009;BME280;44794;42.652;23.318;2023-05-24T08:22:30;94415.53;;;25.24;35.36
59009;BME280;44794;42.652;23.318;2023-05-24T08:24:56;94410.41;;;25.16;35.07
59009;BME280;44794;42.652;23.318;2023-05-24T08:27:21;94406.13;;;25.34;36.01
59009;BME280;44794;42.652;23.318;2023-05-24T08:29:47;94416.34;;;25.11;35.69
59009;BME280;44794;42.652;23.318;2023-05-24T08:32:13;94410.38;;;24.84;34.71
59009;BME280;44794;42.652;23.318;2023-05-24T08:34:38;94410.78;;;24.74;36.37
59009;BME280;44794;42.652;23.318;2023-05-24T08:37:04;94412.22;;;24.90;36.35
59009;BME280;44794;42.652;23.318;2023-05-24T08:39:30;94409.00;;;25.13;37.41
59009;BME280;44794;42.652;23.318;2023-05-24T08:41:56;94411.81;;;25.05;38.17
59009;BME280;44794;42.652;23.318;2023-05-24T08:44:22;94412.47;;;25.20;35.27
59009;BME280;44794;42.652;23.318;2023-05-24T08:46:49;94419.00;;;25.11;34.65
59009;BME280;44794;42.652;23.318;2023-05-24T08:49:15;94417.72;;;24.88;32.12
59009;BME280;44794;42.652;23.318;2023-05-24T08:51:43;94417.06;;;24.67;32.36
59009;BME280;44794;42.652;23.318;2023-05-24T08:54:10;94415.34;;;24.40;34.23
59009;BME280;44794;42.652;23.318;2023-05-24T08:56:39;94419.47;;;24.42;33.15
59009;BME280;44794;42.652;23.318;2023-05-24T08:59:05;94405.22;;;24.56;34.89
59009;BME280;44794;42.652;23.318;2023-05-24T09:01:31;94407.97;;;24.29;34.65
59009;BME280;44794;42.652;23.318;2023-05-24T09:03:58;94410.69;;;24.42;34.58
59009;BME280;44794;42.652;23.318;2023-05-24T09:06:25;94407.69;;;24.58;34.54
59009;BME280;44794;42.652;23.318;2023-05-24T09:08:51;94405.00;;;23.92;35.11
59009;BME280;44794;42.652;23.318;2023-05-24T09:11:19;94413.59;;;24.00;34.65
59009;BME280;44794;42.652;23.318;2023-05-24T09:13:47;94409.50;;;24.04;34.74
59009;BME280;44794;42.652;23.318;2023-05-24T09:16:14;94410.25;;;23.85;35.84
59009;BME280;44794;42.652;23.318;2023-05-24T09:18:40;94406.31;;;24.15;34.62
59009;BME280;44794;42.652;23.318;2023-05-24T09:21:09;94405.66;;;24.07;35.01
59009;BME280;44794;42.652;23.318;2023-05-24T09:23:35;94412.75;;;23.93;32.85
59009;BME280;44794;42.652;23.318;2023-05-24T09:26:08;94406.50;;;24.14;33.59
59009;BME280;44794;42.652;23.318;2023-05-24T09:28:34;94397.31;;;24.16;35.31
59009;BME280;44794;42.652;23.318;2023-05-24T09:31:01;94409.75;;;24.09;33.64
59009;BME280;44794;42.652;23.318;2023-05-24T09:33:33;94402.19;;;24.06;34.06
59009;BME280;44794;42.652;23.318;2023-05-24T09:35:59;94401.91;;;23.88;33.17
59009;BME280;44794;42.652;23.318;2023-05-24T09:38:27;94408.66;;;23.91;32.78
59009;BME280;44794;42.652;23.318;2023-05-24T09:43:24;94394.50;;;24.24;33.32
59009;BME280;44794;42.652;23.318;2023-05-24T09:45:49;94399.41;;;24.40;34.32
59009;BME280;44794;42.652;23.318;2023-05-24T09:48:15;94389.50;;;24.61;34.41
59009;BME280;44794;42.652;23.318;2023-05-24T09:51:02;94396.47;;;24.75;33.99
59009;BME280;44794;42.652;23.318;2023-05-24T09:53:29;94395.44;;;24.83;34.07
59009;BME280;44794;42.652;23.318;2023-05-24T09:55:58;94407.66;;;24.51;31.55
59009;BME280;44794;42.652;23.318;2023-05-24T09:58:30;94398.16;;;24.29;32.38
59009;BME280;44794;42.652;23.318;2023-05-24T10:01:08;94385.88;;;24.16;31.09
59009;BME280;44794;42.652;23.318;2023-05-24T10:03:35;94391.19;;;24.09;31.88
59009;BME280;44794;42.652;23.318;2023-05-24T10:06:05;94392.25;;;24.34;32.59
59009;BME280;44794;42.652;23.318;2023-05-24T10:08:35;94379.50;;;24.70;33.65
59009;BME280;44794;42.652;23.318;2023-05-24T10:11:04;94382.34;;;24.88;33.83
59009;BME280;44794;42.652;23.318;2023-05-24T10:13:31;94375.41;;;24.80;32.19
59009;BME280;44794;42.652;23.318;2023-05-24T10:15:59;94390.16;;;24.89;31.72
59009;BME280;44794;42.652;23.318;2023-05-24T10:18:25;94387.25;;;24.52;30.92
59009;BME280;44794;42.652;23.318;2023-05-24T10:20:53;94376.44;;;24.73;31.84
59009;BME280;44794;42.652;23.318;2023-05-24T10:23:19;94382.78;;;24.98;32.15
59009;BME280;44794;42.652;23.318;2023-05-24T10:28:28;94380.16;;;25.17;31.31
59009;BME280;44794;42.652;23.318;2023-05-24T10:31:06;94375.84;;;25.35;30.74
59009;BME280;44794;42.652;23.318;2023-05-24T10:33:35;94383.19;;;25.46;30.46
59009;BME280;44794;42.652;23.318;2023-05-24T10:36:03;94374.75;;;25.62;29.59
59009;BME280;44794;42.652;23.318;2023-05-24T10:38:29;94369.25;;;25.44;29.13
59009;BME280;44794;42.652;23.318;2023-05-24T10:40:56;94361.06;;;25.52;31.26
59009;BME280;44794;42.652;23.318;2023-05-24T10:43:22;94369.66;;;25.54;29.98
59009;BME280;44794;42.652;23.318;2023-05-24T10:45:48;94364.63;;;25.20;30.25
59009;BME280;44794;42.652;23.318;2023-05-24T10:50:41;94355.41;;;25.10;32.25
59009;BME280;44794;42.652;23.318;2023-05-24T10:53:17;94356.22;;;25.10;31.03
59009;BME280;44794;42.652;23.318;2023-05-24T10:56:00;94359.91;;;25.35;31.59
59009;BME280;44794;42.652;23.318;2023-05-24T10:58:57;94352.06;;;25.53;32.34
59009;BME280;44794;42.652;23.318;2023-05-24T11:01:25;94348.34;;;25.67;31.70
59009;BME280;44794;42.652;23.318;2023-05-24T11:03:51;94346.47;;;25.87;31.55
59009;BME280;44794;42.652;23.318;2023-05-24T11:06:17;94350.53;;;25.96;30.92
59009;BME280;44794;42.652;23.318;2023-05-24T11:08:42;94343.56;;;25.95;29.71
59009;BME280;44794;42.652;23.318;2023-05-24T11:11:10;94346.59;;;26.05;29.58
59009;BME280;44794;42.652;23.318;2023-05-24T11:13:39;94345.81;;;25.98;30.21
59009;BME280;44794;42.652;23.318;2023-05-24T11:16:06;94340.97;;;25.63;30.43
59009;BME280;44794;42.652;23.318;2023-05-24T11:18:32;94351.25;;;25.53;30.21
59009;BME280;44794;42.652;23.318;2023-05-24T11:21:03;94345.94;;;25.53;29.81
59009;BME280;44794;42.652;23.318;2023-05-24T11:23:30;94341.06;;;25.37;29.87
59009;BME280;44794;42.652;23.318;2023-05-24T11:25:56;94336.91;;;25.60;31.73
59009;BME280;44794;42.652;23.318;2023-05-24T11:28:22;94339.19;;;25.50;31.33
59009;BME280;44794;42.652;23.318;2023-05-24T11:30:47;94337.34;;;25.44;29.29
59009;BME280;44794;42.652;23.318;2023-05-24T11:33:17;94334.69;;;25.51;30.20
59009;BME280;44794;42.652;23.318;2023-05-24T11:35:43;94332.47;;;25.41;30.27
59009;BME280;44794;42.652;23.318;2023-05-24T11:38:10;94330.34;;;25.63;30.79
59009;BME280;44794;42.652;23.318;2023-05-24T11:40:41;94320.72;;;25.68;30.88
59009;BME280;44794;42.652;23.318;2023-05-24T11:43:16;94325.25;;;25.61;29.43
59009;BME280;44794;42.652;23.318;2023-05-24T11:45:47;94323.44;;;25.49;30.95
59009;BME280;44794;42.652;23.318;2023-05-24T11:48:14;94316.25;;;25.62;31.44
59009;BME280;44794;42.652;23.318;2023-05-24T11:50:41;94319.66;;;25.82;31.13
59009;BME280;44794;42.652;23.318;2023-05-24T11:53:11;94312.22;;;25.97;30.24
59009;BME280;44794;42.652;23.318;2023-05-24T11:55:37;94316.47;;;26.11;30.48
59009;BME280;44794;42.652;23.318;2023-05-24T11:58:06;94301.25;;;26.18;31.09
59009;BME280;44794;42.652;23.318;2023-05-24T12:00:35;94294.84;;;26.32;30.69
59009;BME280;44794;42.652;23.318;2023-05-24T12:03:02;94299.03;;;26.15;31.43
59009;BME280;44794;42.652;23.318;2023-05-24T12:05:35;94307.41;;;25.68;30.91
59009;BME280;44794;42.652;23.318;2023-05-24T12:08:05;94299.59;;;25.73;32.03
59009;BME280;44794;42.652;23.318;2023-05-24T12:10:35;94308.03;;;25.70;31.29
59009;BME280;44794;42.652;23.318;2023-05-24T12:13:05;94307.81;;;25.65;32.34
59009;BME280;44794;42.652;23.318;2023-05-24T12:15:31;94307.38;;;25.87;31.81
59009;BME280;44794;42.652;23.318;2023-05-24T12:17:57;94301.97;;;26.00;30.11
59009;BME280;44794;42.652;23.318;2023-05-24T12:20:25;94304.22;;;26.34;30.98
59009;BME280;44794;42.652;23.318;2023-05-24T12:22:52;94299.66;;;26.10;30.31
59009;BME280;44794;42.652;23.318;2023-05-24T12:25:18;94288.91;;;25.92;28.94
59009;BME280;44794;42.652;23.318;2023-05-24T12:27:54;94284.63;;;25.91;29.86
59009;BME280;44794;42.652;23.318;2023-05-24T12:30:25;94269.84;;;26.33;30.25
59009;BME280;44794;42.652;23.318;2023-05-24T12:32:51;94274.38;;;26.26;29.17
59009;BME280;44794;42.652;23.318;2023-05-24T12:35:20;94271.31;;;25.91;29.43
59009;BME280;44794;42.652;23.318;2023-05-24T12:37:46;94282.00;;;25.72;29.55
59009;BME280;44794;42.652;23.318;2023-05-24T12:40:17;94276.16;;;26.01;29.86
59009;BME280;44794;42.652;23.318;2023-05-24T12:42:50;94273.25;;;25.78;30.49
59009;BME280;44794;42.652;23.318;2023-05-24T12:45:18;94273.91;;;25.61;31.42
59009;BME280;44794;42.652;23.318;2023-05-24T12:47:50;94281.22;;;25.65;29.99
59009;BME280;44794;42.652;23.318;2023-05-24T12:50:21;94275.06;;;25.71;29.81
59009;BME280;44794;42.652;23.318;2023-05-24T12:52:47;94267.13;;;26.08;30.46
59009;BME280;44794;42.652;23.318;2023-05-24T12:55:13;94273.13;;;26.28;28.67
59009;BME280;44794;42.652;23.318;2023-05-24T12:57:42;94262.41;;;26.41;28.90
59009;BME280;44794;42.652;23.318;2023-05-24T13:00:09;94261.81;;;26.39;30.04
59009;BME280;44794;42.652;23.318;2023-05-24T13:02:36;94259.75;;;26.35;29.96
59009;BME280;44794;42.652;23.318;2023-05-24T13:05:02;94261.63;;;26.34;29.01
59009;BME280;44794;42.652;23.318;2023-05-24T13:07:29;94259.13;;;26.46;30.08